Time;durP1;ratioP1;P1;durP2;ratioP2;P2;SDS_P1;SDS_P2;PMS_P1;PMS_P2;Temp;Humidity;BMP_temperature;BMP_pressure;BME280_temperature;BME280_humidity;BME280_pressure;Samples;Min_cycle;Max_cycle;Signal;HPM_P1;HPM_P2
2022/04/30 00:00:43;;;;;;;11.50;5.00;;;;;;;2.15;93.02;102826.53;2057107;28;20046;-63
2022/04/30 00:01:46;;;;;;;6.30;3.78;;;;;;;2.12;92.33;102825.50;2055412;28;43247;-63
2022/04/30 00:02:48;;;;;;;9.50;4.13;;;;;;;2.09;93.02;102819.25;2055499;28;43407;-63
2022/04/30 00:03:51;;;;;;;12.50;5.03;;;;;;;2.07;92.20;102822.66;2057013;28;20035;-63
2022/04/30 00:04:53;;;;;;;7.13;4.25;;;;;;;2.07;92.70;102822.66;2056343;28;43030;-63
2022/04/30 00:05:55;;;;;;;7.60;4.22;;;;;;;2.04;92.77;102823.44;2055702;28;44017;-63
2022/04/30 00:06:58;;;;;;;6.60;4.30;;;;;;;2.02;92.60;102821.56;2057012;28;20047;-63
2022/04/30 00:08:03;;;;;;;9.85;5.07;;;;;;;1.98;93.25;102817.91;2055910;28;44947;-63
2022/04/30 00:09:07;;;;;;;17.33;5.57;;;;;;;1.97;93.32;102823.09;2055515;28;46656;-63
2022/04/30 00:10:09;;;;;;;13.50;5.57;;;;;;;1.97;93.38;102828.38;2055607;28;43145;-63
2022/04/30 00:11:13;;;;;;;10.13;4.68;;;;;;;1.94;93.65;102822.97;2055687;28;20089;-64
2022/04/30 00:12:17;;;;;;;12.23;4.88;;;;;;;1.93;92.98;102823.81;2055677;28;44492;-63
2022/04/30 00:13:19;;;;;;;10.48;5.78;;;;;;;1.89;92.39;102825.44;2062681;28;45468;-62
2022/04/30 00:14:21;;;;;;;9.73;5.65;;;;;;;1.87;92.48;102822.72;2055874;28;46545;-62
2022/04/30 00:15:22;;;;;;;9.48;4.93;;;;;;;1.86;93.07;102827.94;2055498;28;43278;-63
2022/04/30 00:16:24;;;;;;;8.65;5.25;;;;;;;1.83;93.41;102819.88;2055240;28;44293;-63
2022/04/30 00:17:26;;;;;;;10.43;5.70;;;;;;;1.82;93.39;102820.72;2054977;28;45666;-63
2022/04/30 00:18:28;;;;;;;8.23;4.40;;;;;;;1.80;93.28;102820.66;2055679;28;32969;-63
2022/04/30 00:19:30;;;;;;;9.77;5.22;;;;;;;1.78;93.75;102822.31;2054917;28;44956;-63
2022/04/30 00:20:36;;;;;;;10.23;5.38;;;;;;;1.77;93.29;102816.97;2055283;28;44573;-63
2022/04/30 00:21:37;;;;;;;11.50;4.80;;;;;;;1.76;94.27;102815.16;2054958;28;43930;-64
2022/04/30 00:22:39;;;;;;;9.63;5.15;;;;;;;1.74;93.38;102822.09;2055223;28;45608;-64
2022/04/30 00:23:41;;;;;;;8.25;5.00;;;;;;;1.69;94.11;102820.19;2054864;28;44302;-63
2022/04/30 00:24:43;;;;;;;7.35;5.10;;;;;;;1.69;94.28;102819.28;2055962;28;43976;-63
2022/04/30 00:25:55;;;;;;;8.23;4.05;;;;;;;1.68;93.13;102821.00;2055704;28;42702;-61
2022/04/30 00:26:59;;;;;;;6.38;4.78;;;;;;;1.67;93.73;102818.28;2057229;28;20145;-64
2022/04/30 00:28:01;;;;;;;8.55;4.80;;;;;;;1.63;93.51;102819.88;2056264;28;20079;-64
2022/04/30 00:29:03;;;;;;;6.72;5.00;;;;;;;1.64;93.98;102815.53;2055780;28;31878;-63
2022/04/30 00:30:06;;;;;;;9.15;5.50;;;;;;;1.61;93.85;102811.00;2055000;28;42933;-63
2022/04/30 00:31:07;;;;;;;9.57;5.38;;;;;;;1.58;93.53;102818.81;2055931;28;44417;-64
2022/04/30 00:32:09;;;;;;;11.57;5.60;;;;;;;1.56;93.97;102817.81;2056816;28;20040;-63
2022/04/30 00:33:12;;;;;;;8.57;5.07;;;;;;;1.57;93.51;102813.47;2055548;28;46756;-63
2022/04/30 00:34:13;;;;;;;8.38;5.60;;;;;;;1.53;94.70;102815.97;2056514;28;26319;-62
2022/04/30 00:35:15;;;;;;;8.73;5.30;;;;;;;1.55;94.64;102817.78;2055992;28;45134;-63
2022/04/30 00:36:17;;;;;;;10.57;5.65;;;;;;;1.55;94.16;102810.75;2055347;28;46181;-63
2022/04/30 00:37:18;;;;;;;12.75;6.43;;;;;;;1.50;94.71;102807.88;2055776;28;43754;-63
2022/04/30 00:38:22;;;;;;;10.32;5.05;;;;;;;1.48;93.61;102817.47;2056761;28;20035;-63
2022/04/30 00:39:23;;;;;;;13.40;6.45;;;;;;;1.46;94.67;102805.06;2055924;28;38276;-64
2022/04/30 00:40:25;;;;;;;9.35;6.13;;;;;;;1.43;94.59;102808.44;2055788;28;45385;-63
2022/04/30 00:41:27;;;;;;;8.20;5.18;;;;;;;1.42;93.55;102809.31;2055899;28;44581;-63
2022/04/30 00:42:29;;;;;;;7.45;5.45;;;;;;;1.42;94.92;102809.31;2055789;28;45535;-63
2022/04/30 00:43:30;;;;;;;10.57;5.65;;;;;;;1.39;93.68;102797.72;2056704;28;20908;-63
2022/04/30 00:44:32;;;;;;;10.27;5.80;;;;;;;1.38;93.92;102807.34;2055947;28;44519;-64
2022/04/30 00:45:34;;;;;;;10.80;6.07;;;;;;;1.38;94.92;102809.09;2054989;28;44329;-64
2022/04/30 00:46:38;;;;;;;11.43;6.68;;;;;;;1.35;94.44;102812.50;2054906;28;20446;-63
2022/04/30 00:47:40;;;;;;;8.45;5.72;;;;;;;1.32;94.00;102802.69;2055676;28;45562;-63
2022/04/30 00:48:43;;;;;;;8.90;5.68;;;;;;;1.29;94.73;102802.56;2055448;28;46445;-63
2022/04/30 00:49:46;;;;;;;6.90;5.65;;;;;;;1.27;94.31;102814.78;2055593;28;44483;-63
2022/04/30 00:50:50;;;;;;;10.23;6.03;;;;;;;1.23;94.46;102801.38;2054909;28;45526;-62
2022/04/30 00:51:54;;;;;;;9.18;6.03;;;;;;;1.21;94.32;102803.06;2055850;28;43852;-63
2022/04/30 00:52:58;;;;;;;10.82;5.88;;;;;;;1.19;95.17;102795.06;2056434;28;20055;-64
2022/04/30 00:54:01;;;;;;;9.73;6.10;;;;;;;1.19;94.62;102802.09;2055571;28;45795;-64
2022/04/30 00:55:05;;;;;;;11.90;6.75;;;;;;;1.15;94.49;102798.41;2055744;28;44451;-63
2022/04/30 00:56:13;;;;;;;8.68;6.55;;;;;;;1.12;94.35;102792.97;2055237;28;32163;-63
2022/04/30 00:57:23;;;;;;;10.98;6.00;;;;;;;1.10;95.32;102800.81;2054535;28;46358;-63
2022/04/30 00:58:29;;;;;;;;;;;;;;;1.04;94.78;102795.28;2047149;28;44666;-64
2022/04/30 00:59:32;;;;;;;7.80;5.10;;;;;;;1.04;95.02;102799.63;2049894;28;19961;-63
2022/04/30 01:00:38;;;;;;;10.23;6.80;;;;;;;0.99;94.61;102794.16;2055028;28;43762;-63
2022/04/30 01:01:49;;;;;;;8.73;5.75;;;;;;;0.99;95.12;102796.78;2049626;28;20044;-64
2022/04/30 01:03:11;;;;;;;;;;;;;;;0.95;95.03;102794.81;2056395;28;20174;-63
2022/04/30 01:04:32;;;;;;;11.48;5.25;;;;;;;0.91;94.65;102790.25;2056598;28;19922;-64
2022/04/30 01:05:35;;;;;;;9.52;5.93;;;;;;;0.90;94.91;102791.09;2056505;28;20050;-63
2022/04/30 01:06:57;;;;;;;11.77;6.35;;;;;;;0.87;95.19;102786.56;2055484;28;45573;-64
2022/04/30 01:07:59;;;;;;;10.32;6.55;;;;;;;0.84;94.75;102788.16;2055941;28;36229;-64
2022/04/30 01:09:03;;;;;;;11.07;6.45;;;;;;;0.82;95.38;102787.19;2055742;28;20050;-64
2022/04/30 01:10:07;;;;;;;9.05;7.10;;;;;;;0.78;94.99;102780.88;2055517;28;42951;-64
2022/04/30 01:11:11;;;;;;;9.57;5.97;;;;;;;0.79;94.54;102787.97;2055087;28;44318;-64
2022/04/30 01:12:14;;;;;;;13.07;7.00;;;;;;;0.73;94.93;102778.00;2055173;28;45785;-64
2022/04/30 01:13:16;;;;;;;12.20;6.97;;;;;;;0.73;95.73;102778.00;2055852;28;45247;-64
2022/04/30 01:14:19;;;;;;;9.65;6.78;;;;;;;0.73;95.79;102780.63;2054967;28;45203;-63
2022/04/30 01:15:23;;;;;;;13.38;7.85;;;;;;;0.70;95.46;102777.88;2054845;28;41757;-63
2022/04/30 01:16:25;;;;;;;11.52;7.25;;;;;;;0.70;95.20;102785.78;2054505;28;41233;-64
2022/04/30 01:17:27;;;;;;;12.27;7.22;;;;;;;0.69;95.10;102777.81;2054593;28;45826;-63
2022/04/30 01:18:31;;;;;;;10.93;6.85;;;;;;;0.67;96.17;102777.72;2055172;28;43296;-64
2022/04/30 01:19:37;;;;;;;15.70;8.35;;;;;;;0.67;96.37;102776.84;2055903;28;30804;-63
2022/04/30 01:20:43;;;;;;;13.63;7.70;;;;;;;0.67;95.01;102777.72;2054878;28;44976;-63
2022/04/30 01:21:50;;;;;;;19.02;8.43;;;;;;;0.68;95.28;102778.63;2054527;28;45254;-63
2022/04/30 01:23:03;;;;;;;13.90;8.02;;;;;;;0.68;95.28;102779.53;2054882;28;46492;-63
2022/04/30 01:24:06;;;;;;;11.43;8.75;;;;;;;0.69;96.52;102783.06;2054859;28;43895;-63
2022/04/30 01:25:08;;;;;;;13.52;8.75;;;;;;;0.68;95.51;102781.25;2055776;28;44407;-63
2022/04/30 01:26:10;;;;;;;16.48;9.73;;;;;;;0.69;96.67;102776.06;2055585;28;44309;-63
2022/04/30 01:27:14;;;;;;;15.13;8.00;;;;;;;0.68;95.90;102779.53;2055646;28;38896;-64
2022/04/30 01:28:18;;;;;;;10.63;7.45;;;;;;;0.69;96.33;102772.53;2054303;28;46305;-64
2022/04/30 01:29:23;;;;;;;15.40;8.35;;;;;;;0.65;95.77;102771.47;2055558;28;21570;-64
2022/04/30 01:30:25;;;;;;;14.45;7.57;;;;;;;0.66;96.42;102775.00;2055617;28;20991;-64
2022/04/30 01:38:10;;;;;;;;;;;;;;;0.58;96.29;102772.03;2055840;28;45317;-64
2022/04/30 01:39:13;;;;;;;16.42;8.32;;;;;;;0.57;96.41;102767.56;2055558;28;45063;-64
2022/04/30 01:40:15;;;;;;;16.35;8.38;;;;;;;0.58;96.12;102766.75;2054430;28;43928;-64
2022/04/30 01:41:16;;;;;;;14.35;8.15;;;;;;;0.59;96.68;102773.81;2054819;28;43345;-64
2022/04/30 01:42:18;;;;;;;14.30;8.13;;;;;;;0.56;96.59;102768.41;2055388;28;34689;-63
2022/04/30 01:43:21;;;;;;;16.20;8.25;;;;;;;0.56;96.54;102765.78;2055509;28;43987;-63
2022/04/30 01:44:23;;;;;;;10.23;7.35;;;;;;;0.54;96.13;102773.59;2054804;28;44746;-64
2022/04/30 01:45:26;;;;;;;13.23;8.55;;;;;;;0.50;95.99;102770.75;2055456;28;45212;-63
2022/04/30 01:46:30;;;;;;;16.05;8.82;;;;;;;0.48;96.13;102769.75;2054591;28;44693;-63
2022/04/30 01:47:35;;;;;;;13.93;7.70;;;;;;;0.48;95.91;102769.75;2054912;28;45740;-64
2022/04/30 01:48:37;;;;;;;13.85;7.53;;;;;;;0.44;96.48;102760.81;2054683;28;44931;-63
2022/04/30 01:49:39;;;;;;;18.60;8.75;;;;;;;0.44;97.09;102763.44;2054894;28;44200;-63
2022/04/30 01:50:42;;;;;;;15.13;7.80;;;;;;;0.43;96.61;102766.94;2054464;28;43936;-63
2022/04/30 01:51:51;;;;;;;15.18;7.90;;;;;;;0.38;96.54;102753.53;2055625;28;21136;-63
2022/04/30 01:52:53;;;;;;;17.08;9.13;;;;;;;0.38;97.01;102760.53;2054625;28;44142;-63
2022/04/30 01:53:56;;;;;;;13.50;8.25;;;;;;;0.36;96.34;102757.81;2054600;28;43844;-63
2022/04/30 01:54:58;;;;;;;19.17;8.68;;;;;;;0.37;96.25;102762.25;2054412;28;44666;-63
2022/04/30 01:56:00;;;;;;;14.15;8.18;;;;;;;0.35;96.08;102753.38;2054684;28;42909;-64
2022/04/30 01:57:12;;;;;;;14.00;7.75;;;;;;;0.35;96.43;102763.00;2054910;28;20131;-63
2022/04/30 01:58:14;;;;;;;16.83;8.48;;;;;;;0.33;96.32;102757.66;2054569;28;43426;-63
2022/04/30 01:59:16;;;;;;;12.80;7.75;;;;;;;0.33;96.56;102755.03;2054716;28;45162;-63
2022/04/30 02:00:20;;;;;;;14.90;8.27;;;;;;;0.27;96.24;102757.38;2055907;28;43406;-63
2022/04/30 02:01:24;;;;;;;17.35;8.55;;;;;;;0.26;96.76;102752.91;2054429;28;44461;-63
2022/04/30 02:02:36;;;;;;;13.40;7.70;;;;;;;0.26;96.66;102747.66;2054392;28;44597;-63
2022/04/30 02:03:38;;;;;;;13.93;7.38;;;;;;;0.24;96.68;102743.16;2054429;28;43392;-63
2022/04/30 02:04:40;;;;;;;12.63;7.28;;;;;;;0.23;96.47;102746.59;2054471;28;46059;-63
2022/04/30 02:05:42;;;;;;;15.25;8.60;;;;;;;0.24;96.85;102749.31;2054271;28;44659;-63
2022/04/30 02:06:46;;;;;;;14.05;8.40;;;;;;;0.24;97.14;102753.69;2054236;28;45465;-63
2022/04/30 02:08:03;;;;;;;15.27;9.40;;;;;;;0.30;97.38;102749.59;2046791;28;33564;-63
2022/04/30 02:09:05;;;;;;;18.17;9.48;;;;;;;0.33;97.38;102748.88;2043301;28;44202;-63
2022/04/30 02:10:11;;;;;;;17.95;8.93;;;;;;;0.34;97.24;102750.66;2046703;28;45468;-64
2022/04/30 02:11:13;;;;;;;19.20;9.85;;;;;;;0.37;97.39;102741.16;2054716;28;44770;-63
2022/04/30 02:12:15;;;;;;;16.23;10.57;;;;;;;0.40;98.38;102750.06;2054270;28;43899;-64
2022/04/30 02:13:21;;;;;;;17.73;11.00;;;;;;;0.38;97.32;102740.34;2054154;28;45142;-63
2022/04/30 02:14:24;;;;;;;17.75;10.35;;;;;;;0.42;97.91;102749.31;2054846;28;41955;-64
2022/04/30 02:15:29;;;;;;;16.85;8.82;;;;;;;0.40;97.61;102737.78;2055491;28;39584;-64
2022/04/30 02:16:32;;;;;;;12.32;7.30;;;;;;;0.40;97.65;102743.06;2061526;28;44452;-63
2022/04/30 02:17:38;;;;;;;12.52;7.80;;;;;;;0.36;97.47;102744.66;2046200;28;44523;-63
2022/04/30 02:18:40;;;;;;;16.42;7.95;;;;;;;0.35;97.32;102739.28;2047027;28;45344;-64
2022/04/30 02:21:05;;;;;;;19.83;9.38;;;;;;;0.35;97.82;102742.81;2049485;28;44181;-64
2022/04/30 02:22:06;;;;;;;16.83;8.95;;;;;;;0.38;97.43;102735.06;2053984;28;45765;-63
2022/04/30 02:23:10;;;;;;;16.33;8.98;;;;;;;0.37;97.47;102738.53;2055681;28;43163;-64
2022/04/30 02:24:12;;;;;;;19.25;11.05;;;;;;;0.42;97.63;102737.88;2054795;28;44372;-63
2022/04/30 02:25:16;;;;;;;18.80;10.40;;;;;;;0.45;97.88;102738.00;2054845;28;44419;-63
2022/04/30 02:26:18;;;;;;;18.92;9.90;;;;;;;0.48;98.19;102732.88;2054818;28;39710;-63
2022/04/30 02:27:22;;;;;;;22.13;11.02;;;;;;;0.51;97.83;102739.19;2054535;28;46146;-63
2022/04/30 02:28:25;;;;;;;28.13;12.07;;;;;;;0.58;98.00;102740.41;2054895;28;29926;-64
2022/04/30 02:29:28;;;;;;;21.88;11.90;;;;;;;0.59;98.63;102739.53;2056211;28;20122;-63
2022/04/30 02:30:35;;;;;;;23.45;11.95;;;;;;;0.62;98.67;102730.91;2061769;28;43337;-64
2022/04/30 02:31:37;;;;;;;19.02;9.13;;;;;;;0.62;98.11;102739.69;2055215;28;20204;-63
2022/04/30 02:32:46;;;;;;;16.83;9.18;;;;;;;0.61;97.82;102732.63;2054377;28;45102;-63
2022/04/30 02:33:51;;;;;;;18.52;10.40;;;;;;;0.61;98.21;102727.38;2056008;28;20162;-63
2022/04/30 02:34:53;;;;;;;18.08;10.02;;;;;;;0.60;98.21;102728.19;2055182;28;40125;-64
2022/04/30 02:35:58;;;;;;;25.25;10.75;;;;;;;0.61;97.83;102723.81;2055214;28;44351;-64
2022/04/30 02:36:59;;;;;;;20.67;10.27;;;;;;;0.61;97.64;102729.06;2054080;28;44210;-64
2022/04/30 02:38:10;;;;;;;24.27;11.85;;;;;;;0.65;98.15;102728.41;2054493;28;45122;-63
2022/04/30 02:39:12;;;;;;;21.35;11.20;;;;;;;0.65;98.04;102728.41;2055516;28;43314;-63
2022/04/30 02:40:19;;;;;;;22.05;11.07;;;;;;;0.64;98.64;102731.88;2055602;28;23495;-63
2022/04/30 02:41:24;;;;;;;20.52;9.93;;;;;;;0.64;97.97;102724.84;2054915;28;43489;-63
2022/04/30 02:42:25;;;;;;;17.50;9.25;;;;;;;0.64;98.42;102731.88;2054733;28;46623;-63
2022/04/30 02:43:28;;;;;;;21.00;10.55;;;;;;;0.62;97.81;102721.25;2054593;28;46148;-63
2022/04/30 02:44:29;;;;;;;24.27;11.13;;;;;;;0.66;98.54;102735.47;2055083;28;42637;-63
2022/04/30 02:45:31;;;;;;;22.90;11.57;;;;;;;0.68;97.90;102729.47;2054300;28;45617;-63
2022/04/30 02:46:33;;;;;;;24.27;12.73;;;;;;;0.70;98.68;102729.50;2053869;28;46072;-63
2022/04/30 02:47:39;;;;;;;25.20;12.63;;;;;;;0.71;98.87;102723.41;2054913;28;44868;-62
2022/04/30 02:48:41;;;;;;;20.65;10.68;;;;;;;0.71;97.94;102721.66;2055294;28;38419;-64
2022/04/30 02:49:43;;;;;;;21.20;10.93;;;;;;;0.71;97.80;102723.41;2053891;28;45541;-63
2022/04/30 02:50:44;;;;;;;22.25;11.98;;;;;;;0.71;99.14;102719.03;2054229;28;45385;-63
2022/04/30 02:51:46;;;;;;;21.00;11.55;;;;;;;0.72;98.63;102731.41;2054624;28;44949;-63
2022/04/30 02:52:48;;;;;;;20.27;10.48;;;;;;;0.70;98.67;102718.97;2055005;28;44364;-63
2022/04/30 02:53:50;;;;;;;25.60;12.70;;;;;;;0.67;97.75;102717.09;2054679;28;44103;-63
2022/04/30 02:54:52;;;;;;;24.77;13.40;;;;;;;0.73;98.15;102720.00;2055021;28;44670;-63
2022/04/30 02:55:54;;;;;;;28.63;13.95;;;;;;;0.90;99.30;102712.00;2054357;28;43941;-63
2022/04/30 02:56:55;;;;;;;28.58;13.30;;;;;;;0.83;98.73;102715.19;2045997;28;46284;-63
2022/04/30 03:00:51;;;;;;;29.08;13.93;;;;;;;0.91;99.32;102706.75;2052990;28;20047;-63
2022/04/30 03:02:03;;;;;;;26.48;12.90;;;;;;;0.93;99.24;102706.81;2056741;28;20138;-63
2022/04/30 03:03:23;;;;;;;29.80;11.98;;;;;;;0.91;99.02;102713.78;2054859;28;20043;-63
2022/04/30 03:04:25;;;;;;;25.27;11.98;;;;;;;0.91;99.33;102713.78;2054703;28;42695;-63
2022/04/30 03:05:27;;;;;;;21.95;10.30;;;;;;;0.89;98.93;102713.69;2054789;28;45497;-63
2022/04/30 03:06:34;;;;;;;20.05;11.10;;;;;;;0.86;98.97;102707.38;2055087;28;45565;-63
2022/04/30 03:07:37;;;;;;;25.20;13.18;;;;;;;0.85;99.07;102705.59;2054802;28;27046;-63
2022/04/30 03:08:43;;;;;;;28.27;13.30;;;;;;;0.86;99.62;102708.31;2055248;28;46070;-63
2022/04/30 03:09:47;;;;;;;29.33;14.38;;;;;;;0.89;99.13;102702.25;2061725;28;43374;-63
2022/04/30 03:10:53;;;;;;;27.38;12.88;;;;;;;0.86;99.28;102710.94;2055040;28;44267;-63
2022/04/30 03:11:55;;;;;;;25.38;11.40;;;;;;;0.86;98.66;102704.75;2053899;28;44807;-63
2022/04/30 03:12:57;;;;;;;20.15;11.40;;;;;;;0.88;98.45;102700.44;2055203;28;20181;-64
2022/04/30 03:14:01;;;;;;;23.30;12.93;;;;;;;0.86;99.29;102695.13;2055002;28;45417;-63
2022/04/30 03:15:03;;;;;;;29.52;13.43;;;;;;;0.91;99.06;102697.94;2054341;28;43714;-64
2022/04/30 03:21:42;;;;;;;30.98;13.15;;;;;;;0.96;98.73;102696.44;2054900;28;45799;-63
2022/04/30 03:22:44;;;;;;;20.25;12.05;;;;;;;0.99;98.93;102690.38;2054852;28;44397;-63
2022/04/30 03:23:51;;;;;;;22.98;12.45;;;;;;;0.99;98.99;102686.03;2054751;28;45820;-62
2022/04/30 03:24:53;;;;;;;32.67;13.85;;;;;;;1.08;99.56;102685.53;2054602;28;32427;-63
2022/04/30 03:25:54;;;;;;;28.90;12.60;;;;;;;1.04;99.47;102695.06;2054825;28;44053;-62
2022/04/30 03:26:56;;;;;;;29.88;13.43;;;;;;;1.01;99.95;102689.63;2054277;28;44694;-62
2022/04/30 03:27:58;;;;;;;28.17;13.73;;;;;;;1.08;99.13;102690.81;2055450;28;34533;-62
2022/04/30 03:29:00;;;;;;;29.17;12.40;;;;;;;1.07;100.00;102683.72;2054727;28;45708;-62
2022/04/30 03:30:02;;;;;;;26.30;12.95;;;;;;;1.06;100.00;102688.09;2055003;28;43387;-62
2022/04/30 03:31:06;;;;;;;22.08;12.15;;;;;;;1.06;99.18;102688.09;2045901;28;47598;-62
2022/04/30 03:32:08;;;;;;;29.77;13.50;;;;;;;1.10;99.71;102690.03;2046938;28;43937;-62
2022/04/30 03:33:11;;;;;;;28.58;12.65;;;;;;;1.09;99.35;102687.31;2057568;28;43634;-62
2022/04/30 03:34:14;;;;;;;21.45;10.85;;;;;;;1.06;99.45;102681.91;2057395;28;32824;-62
2022/04/30 03:35:16;;;;;;;21.10;11.43;;;;;;;1.03;99.60;102677.41;2056746;28;46141;-63
2022/04/30 03:36:20;;;;;;;20.80;11.98;;;;;;;1.03;99.93;102681.78;2057211;28;43852;-61
2022/04/30 03:37:22;;;;;;;26.73;13.70;;;;;;;1.00;99.06;102685.19;2056743;28;46611;-63
2022/04/30 03:38:24;;;;;;;28.15;12.88;;;;;;;1.01;99.16;102678.19;2057425;28;44787;-63
2022/04/30 03:39:25;;;;;;;21.65;12.13;;;;;;;1.00;99.54;102682.53;2056240;28;45040;-63
2022/04/30 03:40:29;;;;;;;28.02;14.57;;;;;;;1.00;99.54;102677.25;2056772;28;44468;-63
2022/04/30 03:41:31;;;;;;;26.10;12.38;;;;;;;0.99;98.97;102685.09;2057352;28;44105;-63
2022/04/30 03:42:33;;;;;;;21.02;10.68;;;;;;;0.98;99.05;102680.69;2057460;28;46501;-64
2022/04/30 03:43:35;;;;;;;22.65;11.82;;;;;;;0.99;99.08;102674.56;2057653;28;34998;-63
2022/04/30 03:44:38;;;;;;;25.35;12.93;;;;;;;0.95;99.10;102678.78;2057557;28;31645;-64
2022/04/30 03:45:41;;;;;;;17.75;10.52;;;;;;;0.97;99.39;102682.44;2057546;28;44299;-63
2022/04/30 03:46:43;;;;;;;19.83;10.77;;;;;;;0.95;99.39;102674.44;2056815;28;44952;-63
2022/04/30 03:47:45;;;;;;;23.92;11.38;;;;;;;0.96;99.29;102683.25;2057721;28;27037;-63
2022/04/30 03:48:51;;;;;;;23.83;13.20;;;;;;;0.93;98.81;102680.47;2056516;28;44743;-62
2022/04/30 03:49:53;;;;;;;29.45;12.45;;;;;;;0.91;99.05;102677.75;2049273;28;45157;-63
2022/04/30 03:50:57;;;;;;;18.73;10.68;;;;;;;0.91;99.39;102671.59;2057428;28;24681;-63
2022/04/30 03:51:58;;;;;;;26.60;12.88;;;;;;;0.89;99.44;102681.16;2057077;28;40112;-62
2022/04/30 03:53:00;;;;;;;27.45;14.00;;;;;;;0.86;98.98;102678.38;2056980;28;46175;-62
2022/04/30 03:54:02;;;;;;;20.23;12.00;;;;;;;0.87;99.36;102677.56;2058007;28;20177;-62
2022/04/30 03:55:05;;;;;;;19.40;11.45;;;;;;;0.89;99.12;102681.16;2057449;28;45635;-62
2022/04/30 03:56:08;;;;;;;22.10;11.45;;;;;;;0.88;99.00;102680.28;2057690;28;20043;-62
2022/04/30 03:57:09;;;;;;;21.35;12.18;;;;;;;0.89;99.84;102684.69;2057136;28;42140;-62
2022/04/30 03:58:11;;;;;;;26.88;12.88;;;;;;;0.90;99.63;102683.88;2057121;28;43318;-62
2022/04/30 03:59:13;;;;;;;26.90;13.35;;;;;;;0.91;99.86;102684.78;2057846;28;45653;-63
2022/04/30 04:00:15;;;;;;;29.85;13.30;;;;;;;0.94;99.41;102692.81;2057352;28;43843;-63
2022/04/30 04:01:22;;;;;;;24.20;11.18;;;;;;;0.96;99.09;102688.50;2057354;28;20078;-62
2022/04/30 04:02:24;;;;;;;23.88;11.98;;;;;;;0.94;99.91;102693.72;2056140;28;42263;-63
2022/04/30 04:03:26;;;;;;;22.45;11.25;;;;;;;0.95;99.27;102695.53;2056977;28;45534;-63
2022/04/30 04:04:29;;;;;;;25.42;12.95;;;;;;;0.93;99.10;102689.28;2057540;28;33375;-62
2022/04/30 04:05:31;;;;;;;23.60;12.70;;;;;;;0.94;100.00;102683.16;2056493;28;45246;-62
2022/04/30 04:06:33;;;;;;;18.58;10.95;;;;;;;0.90;99.98;102683.88;2056357;28;45356;-63
2022/04/30 04:07:34;;;;;;;20.63;11.32;;;;;;;0.87;99.11;102691.63;2056911;28;43155;-63
2022/04/30 04:08:36;;;;;;;20.50;10.50;;;;;;;0.86;98.85;102694.19;2056577;28;43918;-63
2022/04/30 04:09:38;;;;;;;26.10;13.35;;;;;;;0.85;98.99;102701.22;2064381;28;43862;-63
2022/04/30 04:10:41;;;;;;;22.70;10.95;;;;;;;0.85;98.96;102687.13;2057373;28;44270;-62
2022/04/30 04:11:43;;;;;;;22.13;10.85;;;;;;;0.84;99.14;102686.22;2057061;28;45142;-63
2022/04/30 04:12:47;;;;;;;24.98;11.45;;;;;;;0.85;99.95;102692.41;2057668;28;34311;-62
2022/04/30 04:17:53;;;;;;;19.85;11.35;;;;;;;0.87;99.26;102693.38;2056225;28;44961;-63
2022/04/30 04:18:55;;;;;;;24.95;11.60;;;;;;;0.89;99.27;102686.44;2059676;28;43374;-63
2022/04/30 04:19:58;;;;;;;25.02;10.98;;;;;;;0.92;99.18;102690.13;2056234;28;44039;-63
2022/04/30 04:21:00;;;;;;;24.20;13.65;;;;;;;1.00;99.41;102698.38;2057029;28;40451;-63
2022/04/30 04:22:03;;;;;;;27.42;13.43;;;;;;;1.07;99.68;102689.88;2057203;28;43086;-63
2022/04/30 04:23:05;;;;;;;22.50;13.25;;;;;;;1.11;99.60;102691.84;2057990;28;28182;-63
2022/04/30 04:26:48;;;;;;;32.65;15.07;;;;;;;1.37;100.00;102692.06;2057076;28;36003;-62
2022/04/30 04:27:55;;;;;;;36.22;15.48;;;;;;;1.46;100.00;102699.50;2057282;28;42972;-62
2022/04/30 04:28:56;;;;;;;29.83;15.45;;;;;;;1.52;100.00;102695.34;2056966;28;45125;-62
2022/04/30 04:29:58;;;;;;;36.88;16.55;;;;;;;1.61;100.00;102693.94;2057269;28;34334;-63
2022/04/30 04:31:00;;;;;;;35.95;16.85;;;;;;;1.70;100.00;102689.94;2057197;28;43891;-64
2022/04/30 04:32:02;;;;;;;37.60;16.92;;;;;;;1.74;100.00;102688.34;2056855;28;46328;-63
2022/04/30 04:33:03;;;;;;;35.63;16.35;;;;;;;1.83;100.00;102691.38;2057155;28;44274;-63
2022/04/30 04:34:05;;;;;;;40.58;17.90;;;;;;;1.90;100.00;102692.50;2056942;28;43099;-63
2022/04/30 04:35:07;;;;;;;35.38;17.00;;;;;;;1.95;100.00;102690.06;2057500;28;33276;-62
2022/04/30 04:36:09;;;;;;;39.58;17.25;;;;;;;2.00;100.00;102694.69;2056829;28;45081;-63
2022/04/30 04:37:10;;;;;;;36.95;16.50;;;;;;;2.06;100.00;102688.75;2056944;28;46932;-63
2022/04/30 04:38:12;;;;;;;26.83;13.82;;;;;;;2.13;100.00;102693.44;2056936;28;44793;-63
2022/04/30 04:39:17;;;;;;;27.42;15.50;;;;;;;2.19;100.00;102687.50;2056554;28;45559;-63
2022/04/30 04:40:19;;;;;;;37.03;16.23;;;;;;;2.24;100.00;102689.50;2056735;28;45537;-63
2022/04/30 04:41:21;;;;;;;30.80;14.27;;;;;;;2.31;100.00;102689.75;2057436;28;43725;-63
2022/04/30 04:42:22;;;;;;;27.30;14.75;;;;;;;2.36;100.00;102688.19;2057038;28;42875;-63
2022/04/30 04:43:24;;;;;;;21.20;11.55;;;;;;;2.41;100.00;102698.09;2056624;28;45793;-64
2022/04/30 04:44:26;;;;;;;27.73;14.63;;;;;;;2.48;100.00;102692.19;2062411;28;36985;-63
2022/04/30 04:45:28;;;;;;;29.65;15.52;;;;;;;2.62;100.00;102686.53;2063113;28;46326;-64
2022/04/30 04:46:31;;;;;;;29.85;15.48;;;;;;;2.73;100.00;102685.22;2055316;28;45964;-63
2022/04/30 04:47:40;;;;;;;24.95;14.18;;;;;;;2.86;100.00;102686.56;2054619;28;45430;-64
2022/04/30 04:48:42;;;;;;;28.33;14.95;;;;;;;2.95;100.00;102688.66;2055666;28;44668;-63
2022/04/30 04:49:44;;;;;;;23.75;12.15;;;;;;;3.01;100.00;102686.22;2055777;28;36312;-64
2022/04/30 04:50:46;;;;;;;20.48;11.23;;;;;;;3.06;100.00;102687.28;2055263;28;46689;-63
2022/04/30 04:51:48;;;;;;;24.58;13.65;;;;;;;3.06;100.00;102680.22;2054493;28;44674;-63
2022/04/30 04:52:50;;;;;;;20.67;10.65;;;;;;;3.16;100.00;102685.84;2054872;28;43100;-63
2022/04/30 04:53:53;;;;;;;20.92;10.70;;;;;;;3.21;100.00;102685.19;2055531;28;45982;-64
2022/04/30 04:54:54;;;;;;;17.60;10.93;;;;;;;3.27;100.00;102681.88;2055357;28;43907;-63
2022/04/30 04:55:57;;;;;;;22.17;12.32;;;;;;;3.29;100.00;102684.56;2055412;28;46381;-63
2022/04/30 04:56:58;;;;;;;24.15;11.82;;;;;;;3.35;99.89;102687.41;2055301;28;42198;-62
2022/04/30 04:58:00;;;;;;;25.17;11.68;;;;;;;3.42;99.53;102685.03;2054973;28;44502;-64
2022/04/30 04:59:02;;;;;;;22.33;10.88;;;;;;;3.53;99.47;102685.41;2054853;28;45712;-63
2022/04/30 05:00:06;;;;;;;18.67;10.38;;;;;;;3.62;99.33;102684.81;2055318;28;37643;-64
2022/04/30 05:01:07;;;;;;;18.33;9.82;;;;;;;3.66;99.63;102692.03;2055659;28;46330;-64
2022/04/30 05:02:10;;;;;;;20.17;10.20;;;;;;;3.66;99.44;102685.81;2055251;28;44978;-63
2022/04/30 05:03:13;;;;;;;15.30;8.15;;;;;;;3.66;99.14;102694.69;2055385;28;44583;-64
2022/04/30 05:04:16;;;;;;;18.23;10.82;;;;;;;3.64;98.46;102696.34;2055168;28;44355;-65
2022/04/30 05:05:18;;;;;;;14.38;8.95;;;;;;;3.65;98.65;102687.56;2056025;28;41975;-63
2022/04/30 05:06:22;;;;;;;19.35;9.52;;;;;;;3.67;98.78;102690.28;2056609;28;20106;-64
2022/04/30 05:07:25;;;;;;;11.63;8.45;;;;;;;3.70;98.66;102693.03;2055566;28;44688;-63
2022/04/30 05:08:27;;;;;;;15.02;9.27;;;;;;;3.75;98.67;102695.00;2055802;28;45074;-64
2022/04/30 05:09:30;;;;;;;20.58;11.57;;;;;;;3.91;98.36;102690.19;2055617;28;46169;-64
2022/04/30 05:10:32;;;;;;;16.90;10.82;;;;;;;3.99;97.42;102689.59;2055171;28;42140;-63
2022/04/30 05:11:34;;;;;;;16.33;9.73;;;;;;;4.21;97.10;102691.16;2055783;28;44277;-62
2022/04/30 05:12:35;;;;;;;16.42;10.70;;;;;;;4.43;96.92;102693.59;2055647;28;44301;-64
2022/04/30 05:13:37;;;;;;;15.27;9.68;;;;;;;4.73;97.33;102690.97;2056166;28;30007;-64
2022/04/30 05:14:39;;;;;;;15.32;9.57;;;;;;;5.02;95.53;102686.47;2055727;28;43766;-63
2022/04/30 05:15:41;;;;;;;13.85;9.25;;;;;;;5.40;95.83;102691.06;2055395;28;44331;-62
2022/04/30 05:16:43;;;;;;;18.77;9.23;;;;;;;5.55;92.52;102691.47;2055659;28;44285;-64